x

Central Aleutians 230nm Sw Dutch Harbor (46072) Wave Buoy

12:50pm - Sat 1st Oct 2016 All times are UTC.

  • Sig Wave height 13.8ft
  • Swell Direction
  • Peak Period 10s
  • Average Period 8s
  • Wind
    27mph, 34mph gusts
  • Sea Temp 47°f
  • 空気 Temp 48°f
  • Sea Pressure 1006.9mb

More Historic Weather Station data

Upgrade to MSW Pro to gain access to the past 30 days of data for over 8000 Wavebouys and Weather Stations around the globe.

Join Pro

Comparision Forecast

View Surf forecast
   
Sat 10/01 12:50pm 14ft 10s 8s 27 34 mph 1006.9mb 47f 48f
11:50am 15ft 11s 8s 27 34 mph 1005.8mb 47f 48f
10:50am 14ft 11s 7s 29 36 mph 1004.3mb 47f 48f
9:50am 15ft 10s 8s 27 34 mph 1003mb 48f 48f
8:50am 15.5ft 11s 8s 22 31 mph 1001.8mb 48f 48f
7:50am 18.5ft 10s 8s 34 43 mph 999.8mb 48f 49f
6:50am 18ft 11s 8s 34 40 mph 997.8mb 48f 49f
5:50am 18ft 11s 8s 36 47 mph 995.5mb 49f 49f
4:50am 18ft 9s 8s 38 47 mph 992.8mb 49f 49f
3:50am 15.5ft 10s 8s 38 49 mph 990.4mb 49f 49f
2:50am 14ft 10s 8s 38 47 mph 987.7mb 50f 50f
1:50am 11ft 11s 7s 34 40 mph 985.7mb 51f 51f
12:50am 12.5ft 11s 8s 29 38 mph 983.6mb 51f 51f
Fri 09/30 11:50pm 13ft 11s 8s 27 36 mph 982.7mb 51f 51f
10:50pm 12ft 11s 8s 20 25 mph 982.2mb 51f 51f
9:50pm 11ft 11s 7s 18 22 mph 981.5mb 51f 51f
8:50pm 13.5ft 11s 8s 11 16 mph 981.2mb 51f 51f
7:50pm 12ft 9s 8s 9 11 mph 981.3mb 51f 51f
6:50pm 13ft 11s 8s 16 20 mph 981.9mb 51f 51f
5:50pm 15ft 10s 8s 20 25 mph 983mb 50f 51f
4:50pm 13ft 9s 7s 25 31 mph 984mb 50f 52f
3:50pm 13.5ft 9s 7s 27 34 mph 985.2mb 51f 53f
2:50pm 14.5ft 10s 7s 31 38 mph 986.9mb 51f 54f
1:50pm 12.5ft 10s 7s 34 43 mph 989mb 51f 54f
12:50pm 12ft 8s 7s 34 40 mph 991.6mb 51f 54f
11:50am 11.5ft 11s 7s 29 36 mph 994.8mb 51f 53f
10:50am 10ft 11s 7s 29 36 mph 996.8mb 51f 53f
9:50am 10.5ft 9s 7s 29 34 mph 998.9mb 51f 52f
8:50am 9.5ft 10s 7s 27 34 mph 1000.9mb 51f 53f
7:50am 9ft 11s 7s 25 29 mph 1002.6mb 51f 52f
6:50am 9.5ft 8s 7s 25 29 mph 1003.6mb 51f 52f
5:50am 9.5ft 11s 7s 25 31 mph 1004.4mb 51f 52f
4:50am 9.5ft 10s 7s 20 25 mph 1005.6mb 51f 52f
3:50am 11ft 11s 8s 20 22 mph 1006.4mb 51f 52f
2:50am 11ft 11s 8s 20 25 mph 1006.8mb 51f 52f
1:50am 11ft 11s 8s 20 22 mph 1007.3mb 51f 52f
12:50am 10.5ft 11s 7s 18 20 mph 1008.2mb 51f 52f
Thu 09/29 11:50pm 11.5ft 11s 8s 18 20 mph 1009.1mb 51f 52f
10:50pm 11ft 11s 8s 18 22 mph 1009.6mb 51f 52f
8:50pm 13ft 11s 8s 20 25 mph 1010.7mb 50f 52f
7:50pm 13ft 10s 8s 22 27 mph 1010.6mb 50f 52f
6:50pm 13ft 11s 7s 22 29 mph 1010.8mb 50f 52f
5:50pm 13ft 11s 8s 25 29 mph 1010.7mb 50f 52f
4:50pm 13.5ft 10s 8s 25 29 mph 1010.4mb 50f 52f
3:50pm 15.5ft 11s 8s 27 34 mph 1010.1mb 50f 53f
2:50pm 15.5ft 9s 8s 27 34 mph 1010.4mb 50f 53f
1:50pm 16ft 11s 8s 29 38 mph 1010.9mb 50f 53f
12:50pm 17.5ft 11s 8s 29 36 mph 1011.4mb 50f 53f
11:50am 17.5ft 11s 8s 29 36 mph 1012mb 50f 53f
10:50am 16.5ft 11s 8s 31 38 mph 1012.4mb 50f 53f
9:50am 16ft 11s 7s 34 43 mph 1012.7mb 50f 53f
8:50am 14ft 9s 7s 34 40 mph 1013.7mb 50f 53f
7:50am 14.5ft 10s 7s 34 40 mph 1014.8mb 50f 52f
6:50am 12.5ft 10s 7s 34 40 mph 1016.1mb 51f 52f
5:50am 12ft 9s 7s 31 38 mph 1017.3mb 50f 52f
4:50am 11.5ft 8s 7s 29 36 mph 1018.4mb 50f 52f
3:50am 10ft 10s 6s 29 36 mph 1019.2mb 49f 52f
2:50am 9.5ft 10s 6s 27 34 mph 1020.5mb 49f 52f
1:50am 9ft 10s 6s 25 31 mph 1021.6mb 50f 52f
12:50am 8ft 10s 6s 25 29 mph 1022.7mb 50f 52f
Wed 09/28 11:50pm 7ft 10s 6s 25 31 mph 1023.8mb 50f 52f
10:50pm 7ft 10s 6s 25 29 mph 1024.6mb 51f 52f
9:50pm 6ft 9s 6s 22 27 mph 1025.6mb 51f 52f
8:50pm 5.5ft 10s 6s 20 22 mph 1026.4mb 51f 52f
7:50pm 6ft 10s 6s 18 20 mph 1027mb 51f 52f
6:50pm 6ft 9s 6s 16 20 mph 1027.3mb 50f 51f
5:50pm 5ft 9s 6s 16 18 mph 1027.5mb 51f 51f
4:50pm 4.5ft 9s 5s 16 20 mph 1027.4mb 51f 51f
3:50pm 5ft 10s 6s 16 18 mph 1027.4mb 51f 51f
2:50pm 4.5ft 9s 6s 16 20 mph 1027.6mb 51f 51f
1:50pm 4.5ft 10s 7s 16 20 mph 1027.7mb 51f 51f
12:50pm 5ft 10s 7s 16 18 mph 1028mb 51f 51f
11:50am 6ft 10s 8s 16 20 mph 1028.7mb 51f 51f
10:50am 6ft 10s 8s 13
mph
1029.1mb 49f 51f
9:50am 5.5ft 10s 7s 13 16 mph 1029.3mb 49f 51f
8:50am 5.5ft 10s 7s 11 16 mph 1029.4mb 51f 51f
7:50am 5ft 11s 7s 11 13 mph 1029.2mb 51f 51f
6:50am 4.5ft 10s 7s 11 13 mph 1029mb 51f 51f
5:50am 5ft 10s 7s 9 11 mph 1028.7mb 51f 51f
4:50am 4.5ft 10s 7s 9
mph
1028.3mb 51f 51f
3:50am 4ft 9s 7s 7 9 mph 1028mb 51f 52f
2:50am 4.5ft 9s 7s 7 9 mph 1027.9mb 50f 52f
1:50am 4ft 10s 7s 9 11 mph 1027.8mb 51f 52f
12:50am 3.5ft 10s 6s 9 11 mph 1027.7mb 51f 52f
Tue 09/27 11:50pm 3.5ft 11s 7s 11
mph
1028mb 51f 51f
10:50pm 3ft 16s 6s 11 13 mph 1027.8mb 51f 51f
9:50pm 3.5ft 16s 6s 11 13 mph 1027.7mb 51f 50f
8:50pm 3.5ft 16s 6s 11
mph
1027.6mb 51f 50f
7:50pm 4ft 10s 6s 11 13 mph 1027.6mb 51f 49f
6:50pm 3.5ft 10s 5s 13 16 mph 1027.2mb 51f 46f
5:50pm 4ft 8s 6s 13 16 mph 1026.8mb 51f 47f
4:50pm 4ft 16s 6s 13 16 mph 1026.4mb 50f 49f
3:50pm 3.5ft 7s 6s 7 9 mph 1026.5mb 51f 51f
2:50pm 3.5ft 7s 6s 11 13 mph 1026.1mb 51f 51f